Latest Coastal Weather Observations for Sydney Airport

IDN60701

Issued at 6:41 pm EDT Monday 11 December 2017 (issued every 10 minutes, with the page automatically refreshed every 10 minutes)

About coastal observations | Map of coastal stations | Coastal observations for NSW | Marine services | Other Formats
Station Details ID: 066037 Name: SYDNEY AIRPORT AMO Lat: -33.95 Lon: 151.17 Height: 6.0 m
Data from the previous 72 hours. | See also: Recent months at Sydney Airport
Date/Time
EDT
Temp
°C
Wind Pressure Rain since
9am
mm
Weather Cloud Vis
km
Sea
Height
m
Swell
Dir  Spd
kts
Gust
kts
hPa Trend Height
m
Period
s
Dir
11/06:30pm 24.4 NE 18 23 1016.5 - 0.0 - Clear 10 - - - -
11/06:00pm 25.7 NE 19 26 1016.2 F 0.0 Fine Mostly clear 30 - - - -
11/05:30pm 26.5 NE 20 25 1016.1 - 0.0 - - 10 - - - -
11/05:00pm 25.5 ENE 19 23 1016.1 - 0.0 - - 10 - - - -
11/04:30pm 26.5 NE 18 24 1016.2 - 0.0 - - 10 - - - -
11/04:00pm 26.7 ENE 18 22 1016.4 - 0.0 - - 10 - - - -
11/03:30pm 28.3 ENE 20 23 1016.5 - 0.0 - - 10 - - - -
11/03:00pm 28.3 NE 18 23 1016.7 F 0.0 Fine Mostly clear 30 - - - -
11/02:30pm 27.2 ENE 20 25 1017.0 - 0.0 - - 10 - - - -
11/02:00pm 27.1 ENE 17 20 1017.5 - 0.0 - - 10 - - - -
11/01:30pm 26.0 E 17 20 1018.0 - 0.0 - - 10 - - - -
11/01:00pm 25.9 ENE 15 19 1018.3 - 0.0 - - 10 - - - -
11/12:30pm 26.6 ENE 14 18 1018.7 - 0.0 - - 10 - - - -
11/12:00pm 26.3 ENE 13 16 1019.0 F 0.0 Fine Mostly clear 30 - - - -
11/11:30am 25.8 ENE 13 17 1019.4 - 0.0 - - 10 - - - -
11/11:00am 26.2 ENE 11 15 1019.7 - 0.0 - Mostly clear 10 - - - -
11/10:30am 26.9 NE 6 9 1019.9 - 0.0 - - 10 - - - -
11/10:00am 26.2 N 5 8 1020.2 - 0.0 - - 10 - - - -
11/09:30am 25.2 N 7 14 1020.4 - 0.0 - - 10 - - - -
11/09:00am 24.9 N 8 11 1020.5 F 0.0 Fine Mostly clear 30 - - - -
11/08:30am 23.6 NNW 9 13 1020.6 - 0.0 - Mostly clear 10 - - - -
11/08:00am 23.0 N 11 14 1020.5 - 0.0 - - 10 - - - -
11/07:30am 22.3 N 9 11 1020.3 - 0.0 - - 10 - - - -
11/07:00am 21.7 N 9 12 1020.0 - 0.0 - - 10 - - - -
11/06:30am 21.4 NNE 7 9 1019.8 - 0.0 - Mostly clear 10 - - - -
11/06:00am 19.9 NNE 4 4 1019.8 F 0.0 Fine Mostly clear 30 - - - -
11/05:30am 19.2 CALM 0 4 1019.6 - 0.0 - - 10 - - - -
11/05:00am 18.7 CALM 0 0 1019.5 - 0.0 - - 10 - - - -
11/04:30am 19.0 WNW 3 4 1019.3 - 0.0 - - 10 - - - -
11/04:00am 18.9 NNW 3 3 1019.3 - 0.0 - - 10 - - - -
11/03:30am 19.5 N 4 4 1019.3 - 0.0 - - 10 - - - -
11/03:00am 19.9 N 4 5 1019.4 F 0.0 Fine Partly cloudy 25 - - - -
11/02:30am 20.4 N 5 5 1019.9 - 0.0 - - 10 - - - -
11/02:00am 20.3 NW 4 5 1020.1 - 0.0 - - 10 - - - -
11/01:30am 20.1 NW 5 6 1020.3 - 0.0 - - 10 - - - -
11/01:00am 20.6 N 6 7 1020.6 - 0.0 - - 10 - - - -
11/12:30am 20.7 N 6 7 1020.8 - 0.0 - - 10 - - - -
11/12:00am 21.1 NNE 11 15 1021.0 R 0.0 Fine Mostly clear 25 - - - -
 
Date/Time
EDT
Temp
°C
Wind Pressure Rain since
9am
mm
Weather Cloud Vis
km
Sea
Height
m
Swell
Dir  Spd
kts
Gust
kts
hPa Trend Height
m
Period
s
Dir
10/11:30pm 21.3 NNE 9 11 1021.1 - 0.0 - - 10 - - - -
10/11:00pm 21.6 NNE 8 11 1021.2 - 0.0 - - 10 - - - -
10/10:30pm 21.9 NNE 9 14 1021.1 - 0.0 - - 10 - - - -
10/10:00pm 22.0 NNE 10 14 1021.2 - 0.0 - - 10 - - - -
10/09:30pm 21.9 NNE 11 17 1020.8 - 0.0 - - 10 - - - -
10/09:00pm 21.9 NE 15 19 1020.3 F 0.0 Fine Mostly clear 25 - - - -
10/08:30pm 22.3 NE 16 21 1020.1 - 0.0 - - 10 - - - -
10/08:00pm 22.2 NE 18 21 1020.0 - 0.0 - - 10 - - - -
10/07:30pm 22.8 NE 19 25 1019.8 - 0.0 - Mostly clear 10 - - - -
10/07:00pm 23.5 NE 18 22 1019.7 - 0.0 - - 10 - - - -
10/06:30pm 24.2 NE 18 25 1019.5 - 0.0 - - 10 - - - -
10/06:00pm 24.5 NE 18 23 1019.3 F 0.0 Fine Mostly clear 35 - - - -
10/05:30pm 24.5 ENE 20 25 1019.5 - 0.0 - - 10 - - - -
10/05:00pm 24.7 ENE 19 24 1019.7 - 0.0 - - 10 - - - -
10/04:30pm 24.8 ENE 19 23 1019.8 - 0.0 - - 10 - - - -
10/04:00pm 25.3 ENE 18 22 1020.1 - 0.0 - - 10 - - - -
10/03:30pm 26.2 ENE 18 21 1020.3 - 0.0 - - 10 - - - -
10/03:00pm 25.8 ENE 19 22 1020.5 F 0.0 Fine Mostly clear 40 - - - -
10/02:30pm 25.3 ENE 19 22 1020.9 - 0.0 - - 10 - - - -
10/02:00pm 25.8 ENE 17 22 1021.0 - 0.0 - - 10 - - - -
10/01:30pm 24.9 ENE 15 19 1021.3 - 0.0 - - 10 - - - -
10/01:00pm 25.2 ENE 15 20 1021.6 - 0.0 - - 10 - - - -
10/12:30pm 24.6 ENE 16 20 1021.8 - 0.0 - - 10 - - - -
10/12:00pm 24.7 ENE 15 17 1022.1 F 0.0 Fine Mostly clear 30 - - - -
10/11:30am 24.8 ENE 11 16 1022.4 - 0.0 - Mostly clear 10 - - - -
10/11:00am 23.9 ENE 11 16 1022.6 - 0.0 - Mostly clear 10 - - - -
10/10:30am 23.7 ENE 6 10 1022.7 - 0.0 - Mostly clear 10 - - - -
10/10:00am 23.2 S 7 8 1022.9 - 0.0 - Partly cloudy 10 - - - -
10/09:30am 22.7 SW 5 6 1023.0 - 0.0 - Partly cloudy 10 - - - -
10/09:00am 22.4 SW 4 5 1023.0 F 0.0 Fine Partly cloudy 30 - - - -
10/08:30am 22.5 WNW 3 5 1023.0 - 0.0 - Partly cloudy 10 - - - -
10/08:00am 20.4 WSW 5 7 1022.9 - 0.0 - Partly cloudy 10 - - - -
10/07:30am 19.4 W 5 7 1022.7 - 0.0 - Mostly clear 10 - - - -
10/07:00am 19.4 W 4 5 1022.5 - 0.0 - Mostly clear 10 - - - -
10/06:30am 18.7 W 4 7 1022.1 - 0.0 - Mostly clear 10 - - - -
10/06:00am 17.8 SW 4 5 1022.0 R 0.0 Fine Partly cloudy 30 - - - -
10/05:30am 17.6 SSW 4 4 1021.7 - 0.0 - Mostly clear 10 - - - -
10/05:00am 17.6 SSW 4 5 1021.4 - 0.0 - Partly cloudy 10 - - - -
10/04:30am 17.6 SW 5 6 1021.3 - 0.0 - Partly cloudy 10 - - - -
10/04:00am 17.7 SW 5 6 1021.2 - 0.0 - Partly cloudy 10 - - - -
10/03:30am 18.0 SSW 6 7 1021.2 - 0.0 - Mostly cloudy 10 - - - -
10/03:00am 18.1 SSW 5 6 1021.1 R 0.0 Fine Partly cloudy 30 - - - -
10/02:30am 18.3 W 5 6 1021.1 - 0.0 - Mostly clear 10 - - - -
10/02:00am 18.7 WSW 5 5 1021.1 - 0.0 - Mostly clear 10 - - - -
10/01:30am 18.6 W 4 5 1021.2 - 0.0 - Mostly clear 10 - - - -
10/01:00am 19.2 WNW 4 5 1021.3 - 0.0 - Mostly clear 10 - - - -
10/12:30am 19.7 NE 3 4 1021.3 - 0.0 - Mostly clear 10 - - - -
10/12:00am 20.2 NNE 4 4 1021.4 R 0.0 Fine Clear 30 - - - -
 
Date/Time
EDT
Temp
°C
Wind Pressure Rain since
9am
mm
Weather Cloud Vis
km
Sea
Height
m
Swell
Dir  Spd
kts
Gust
kts
hPa Trend Height
m
Period
s
Dir
09/11:30pm 20.1 NNE 4 5 1021.3 - 0.0 - - 10 - - - -
09/11:00pm 20.0 NE 7 9 1021.1 - 0.0 - - 10 - - - -
09/10:30pm 20.2 NE 8 9 1020.9 - 0.0 - - 10 - - - -
09/10:00pm 20.9 NE 8 10 1021.0 - 0.0 - - 10 - - - -
09/09:30pm 20.9 NE 8 10 1020.6 - 0.0 - - 10 - - - -
09/09:00pm 20.6 NE 10 14 1020.4 R 0.0 Fine Partly cloudy 30 - - - -
09/08:30pm 21.0 NE 9 11 1020.0 - 0.0 - - 10 - - - -
09/08:00pm 20.8 NE 8 10 1019.6 - 0.0 - - 10 - - - -
09/07:30pm 21.5 NE 12 16 1019.2 - 0.0 - - 10 - - - -
09/07:00pm 21.9 NE 15 18 1018.8 - 0.0 - - 10 - - - -
09/06:30pm 23.3 NE 16 18 1018.4 - 0.0 - - 10 - - - -
09/06:00pm 22.8 NE 16 19 1018.1 F 0.0 Fine Mostly cloudy 30 - - - -
09/05:30pm 23.2 ENE 17 21 1018.0 - 0.0 - Mostly clear 10 - - - -
09/05:00pm 23.2 ENE 15 19 1017.9 - 0.0 - Mostly clear 10 - - - -
09/04:30pm 23.3 ENE 15 18 1017.9 - 0.0 - Mostly clear 10 - - - -
09/04:00pm 23.2 ENE 15 20 1018.2 - 0.0 - Mostly clear 10 - - - -
09/03:30pm 23.5 E 14 17 1018.5 - 0.0 - Mostly clear 10 - - - -
09/03:00pm 23.7 E 12 15 1018.6 F 0.0 Fine Partly cloudy 30 - - - -
09/02:30pm 22.9 E 11 15 1018.8 - 0.0 - Mostly clear 10 - - - -
09/02:00pm 22.8 ESE 9 13 1019.3 - 0.0 - Partly cloudy 10 - - - -
09/01:30pm 22.6 ESE 10 14 1019.5 - 0.0 - Mostly clear 10 - - - -
09/01:00pm 22.6 ESE 10 13 1019.9 - 0.0 - Mostly clear 10 - - - -
09/12:30pm 21.5 SSE 9 14 1020.0 - 0.0 - Mostly clear 10 - - - -
09/12:00pm 22.1 S 10 14 1020.2 R 0.0 Fine Partly cloudy 30 - - - -
09/11:30am 21.0 SSW 9 12 1020.2 - 0.0 - Mostly clear 10 - - - -
09/11:00am 20.5 S 10 13 1020.3 - 0.0 - Mostly clear 10 - - - -
09/10:30am 20.8 SE 9 11 1020.2 - 0.0 - Mostly clear 10 - - - -
09/10:00am 20.6 SE 9 12 1020.3 - 0.0 - Mostly clear 10 - - - -
09/09:30am 20.8 SE 9 13 1020.2 - 0.0 - Mostly clear 10 - - - -
09/09:00am 20.9 SSE 9 11 1020.0 R 0.4 Fine Mostly cloudy 25 - - - -
09/08:30am 20.3 SE 10 14 1019.9 - 0.2 - Mostly clear 10 - - - -
09/08:00am 20.7 SSE 10 14 1019.6 - 0.2 - Mostly clear 10 - - - -
09/07:30am 19.8 SE 9 12 1019.1 - 0.2 - Mostly clear 10 - - - -
09/07:00am 19.5 SE 8 10 1018.7 - 0.2 - Mostly clear 10 - - - -
09/06:30am 19.2 SE 7 9 1018.5 - 0.2 - Mostly cloudy 10 - - - -
09/06:00am 18.6 SSE 8 10 1018.1 R 0.2 Fine Mostly cloudy 25 - - - -
09/05:30am 19.2 SSE 9 11 1017.7 - 0.2 - Mostly clear 10 - - - -
09/05:00am 19.0 SSE 10 14 1017.4 - 0.2 - Mostly clear 10 - - - -
09/04:30am 19.1 SSE 10 14 1017.2 - 0.2 - Mostly clear 10 - - - -
09/04:00am 19.3 SSE 14 17 1017.2 - 0.2 - Mostly clear 10 - - - -
09/03:30am 19.2 SSE 14 18 1017.2 - 0.2 - Mostly clear 10 - - - -
09/03:00am 19.4 SSE 12 16 1017.3 R 0.2 Distant precip. Cloudy 20 - - - -
09/02:30am 19.5 SSE 14 17 1017.2 - 0.2 Showers Mostly clear 10 - - - -
09/02:00am 19.4 SE 13 17 1017.1 - 0.2 - Mostly clear 10 - - - -
09/01:30am 19.4 SSE 14 17 1017.0 - 0.2 Showers Mostly clear 10 - - - -
09/01:00am 19.5 SE 14 18 1016.8 - 0.2 - Mostly clear 10 - - - -
09/12:30am 19.5 SSE 15 18 1016.6 - 0.2 - Mostly clear 10 - - - -
09/12:00am 19.5 SE 15 20 1016.5 F 0.2 Haze Mostly cloudy 22 - - - -
 
Date/Time
EDT
Temp
°C
Wind Pressure Rain since
9am
mm
Weather Cloud Vis
km
Sea
Height
m
Swell
Dir  Spd
kts
Gust
kts
hPa Trend Height
m
Period
s
Dir
08/11:30pm 19.6 SE 16 20 1016.9 - 0.2 Showers Mostly clear 10 - - - -
08/11:00pm 19.8 SE 15 19 1017.0 - 0.2 - Mostly clear 10 - - - -
08/10:30pm 19.6 SE 17 21 1016.7 - 0.2 - Partly cloudy 10 - - - -
08/10:00pm 19.7 SE 16 20 1016.4 - 0.2 - Mostly clear 10 - - - -
08/09:30pm 19.7 SE 17 21 1016.1 - 0.2 - Mostly clear 10 - - - -
08/09:00pm 19.9 SE 16 19 1016.2 R 0.2 Recent precip. Cloudy 20 - - - -
08/08:30pm 20.3 SE 15 21 1015.3 - 0.2 Showers Mostly clear 10 - - - -
08/08:00pm 20.3 SE 14 19 1015.1 - 0.0 - Mostly clear 10 - - - -
08/07:30pm 20.4 SE 16 19 1014.7 - 0.0 - Mostly clear 10 - - - -
08/07:00pm 20.9 SSE 17 22 1013.8 - 0.0 - Mostly clear 10 - - - -

Other Formats:

Comma delimited format used in spreadsheet applications
http://www.bom.gov.au/fwo/IDN60701/IDN60701.94767.axf

JavaScript Object Notation format (JSON) in row-major order
http://www.bom.gov.au/fwo/IDN60701/IDN60701.94767.json